Tampa, Florida
Traffic Map
Current Weather Conditions
Tampa, Florida
Overcast Light Rain
Overcast
29°
Feels Like: 33°
Wind Chill: 29° Ceiling: 3600
Heat Index: 33° Visibility: 10mi
Dew Point: 24° Wind: 7mph
Humidity: 74% Direction: 270° (W)
Pressure: 29.99in Gusts: 0mph
Raw Report DataKTPA 291553Z 27006KT 10SM -RA SCT024 BKN036 BKN065 OVC180 29/24 A2999 RMK AO2 RAB1457E07B44 SLP156 CB DSNT N-NE AND SE TCU ALQDS SHRA N-SE P0000 T02890239
Traffic Incident Summary
Active as of:
Severity:
Category:
InformationThere was an issue retrieving the traffic information for this location. Please try a different location or try again shortly.
Advertisements
Track Severe Weather on mobile